Troy, Michigan
Current Conditions -  °F | °C
As of 1:56 PM on Sunday 23 Nov 2014 (Local Time) from KVLL Reporting Station
Clear Clear  
Wind Chill: 52°   Ceiling: Unl
Heat Index: 52°   Visibility: 10mi
Dew Point: 45°   Wind: 8mph
Humidity: 76%   Direction: 140°SE
Pressure: 29.8"   Gusts: NA
Location:  42.56°N, 83.15°W
Report Text: KVLL 231856Z AUTO 14007KT 10SM CLR 11/07 A2980 RMK AO2
Loading
Personal Weather Stations






























Interactive Weather Map New forecast layout! Learn more

10-Day Weather Forecast

Advertisements
Track Severe Weather on mobile